Aeroporto :
LOGIN :

Iscrizione | Disclaimer

   EN    FR    IT 

 










Sommario :    VFR   VFR Marginale   IFR   IFR Intensivo   IFR Molto Intensivo
Visibilità : 
Base nubi : 
>= 8 km
>= 3000ft
5 / 8 km
1000 / 3000 ft
1500m / 5 km
500 / 1000 ft
800 / 1500m
200 / 500 ft
< 800m
< 200 ft
Simboli :   Temporali  Nebbia  Neve Forte  Precipitazioni Forti  Vento > 20 kt
SIGMETs :   Varie  Temporali  Ghiacco  Turbolenza  Onda orograficha  Ceneri Vulcaniche






- Altitudine del aeroporto : 17 ft
- Codice IATA : RHO


LGRP - Diagoras

ULTIMO METAR :
  • 171750Z 22004KT 9999 FEW020 14/08 Q1018 NOSIG

METARs OBSOLETI :
  • 171720Z 22005KT CAVOK 14/08 Q1018 NOSIG
  • 171650Z 22005KT CAVOK 14/07 Q1018 NOSIG
  • 171620Z 21005KT CAVOK 14/08 Q1018 NOSIG
  • 171550Z 23005KT CAVOK 15/08 Q1018 NOSIG
  • 171520Z 24007KT CAVOK 16/08 Q1018 NOSIG

TAF TAF LGRP
Valido dal 17 a 18 ore il 18 a 18 ore UTC


171700Z 1718/1818 VRB05KT 9999 FEW018
TEMPO 1807/1813 14010KT FEW018 SCT025
PROB30
TEMPO 1809/1815 5000 RA SCT018 BKN025



MetMap, La meteo Aeronautica in un colpo d'occhio ! - Copyright ORBIFLY Dicembre 2007 - Disclaimer

ORBIFLY MET'MAP TEAM :

Programmazione e sviluppo : Alexandra Zaïnal
Concezione : Baudouin d'Aumeries
Aiuto per la programmazione : Marc-Olivier Méhu
Supporto tecnico e logistico : Manuel Goepfert
Aiuto per la traduzione : Arnaldo La Scala

Contatto : metmap@orbifly.com




FONTI E CREDITI :

   NOAA